createdAt,value
2022-12-04T00:01:51.384Z,9.43
2022-12-04T00:04:55.143Z,9.46
2022-12-04T00:07:59.242Z,9.46
2022-12-04T00:11:03.335Z,9.35
2022-12-04T00:14:08.504Z,9.44
2022-12-04T00:17:12.215Z,8.95
2022-12-04T00:20:15.984Z,9.03
2022-12-04T00:23:19.854Z,8.92
2022-12-04T00:26:25.329Z,9.13
2022-12-04T00:29:30.747Z,9.25
2022-12-04T00:32:34.523Z,9.14
2022-12-04T00:35:38.207Z,8.76
2022-12-04T00:38:42.965Z,8.95
2022-12-04T00:41:46.634Z,8.88
2022-12-04T00:44:52.043Z,8.93
2022-12-04T00:47:55.850Z,9.16
2022-12-04T00:51:03.701Z,9.07
2022-12-04T00:54:07.505Z,9.07
2022-12-04T00:57:11.244Z,8.87
2022-12-04T01:00:17.014Z,9.00
2022-12-04T01:03:20.749Z,8.73
2022-12-04T01:06:26.128Z,8.88
2022-12-04T01:09:29.954Z,8.97
2022-12-04T01:12:33.564Z,8.96
2022-12-04T01:15:43.894Z,8.83
2022-12-04T01:18:48.027Z,9.05
2022-12-04T01:21:51.806Z,9.16
2022-12-04T01:24:57.190Z,9.10
2022-12-04T01:28:00.983Z,8.61
2022-12-04T01:31:08.803Z,8.88
2022-12-04T01:34:12.452Z,8.66
2022-12-04T01:37:16.265Z,8.76
2022-12-04T01:40:20.033Z,8.92
2022-12-04T01:43:24.606Z,9.07
2022-12-04T01:46:29.554Z,8.92
2022-12-04T01:49:39.653Z,9.01
2022-12-04T01:52:43.932Z,9.07
2022-12-04T01:55:49.012Z,8.82
2022-12-04T01:58:55.560Z,8.69
2022-12-04T02:02:05.877Z,8.75
2022-12-04T02:05:13.221Z,8.89
2022-12-04T02:08:17.297Z,8.85
2022-12-04T02:11:30.925Z,8.87
2022-12-04T02:14:43.263Z,9.02
2022-12-04T02:17:55.547Z,8.74
2022-12-04T02:21:07.694Z,8.59
2022-12-04T02:24:27.342Z,8.86
2022-12-04T02:27:59.883Z,8.91
2022-12-04T02:31:06.397Z,8.54
2022-12-04T02:34:16.949Z,8.67
2022-12-04T02:37:29.274Z,8.50
2022-12-04T02:40:40.260Z,8.55
2022-12-04T02:43:48.912Z,8.40
2022-12-04T02:46:57.694Z,8.52
2022-12-04T02:50:03.297Z,8.58
2022-12-04T02:53:12.404Z,8.68
2022-12-04T02:56:20.972Z,8.70
2022-12-04T02:59:31.807Z,8.78
2022-12-04T03:02:39.568Z,8.66
2022-12-04T03:05:47.972Z,8.85
2022-12-04T03:08:56.845Z,9.04
2022-12-04T03:12:07.784Z,8.97
2022-12-04T03:15:19.362Z,8.90
2022-12-04T03:18:28.994Z,8.73
2022-12-04T03:21:38.222Z,8.63
2022-12-04T03:24:46.984Z,8.73
2022-12-04T03:27:56.244Z,8.62
2022-12-04T03:31:06.256Z,8.63
2022-12-04T03:34:12.309Z,8.85
2022-12-04T03:37:20.061Z,8.57
2022-12-04T03:40:29.430Z,8.52
2022-12-04T03:43:39.251Z,8.43
2022-12-04T03:46:50.823Z,8.69
2022-12-04T03:50:01.643Z,8.75
2022-12-04T03:53:11.189Z,8.58
2022-12-04T03:56:19.219Z,8.73
2022-12-04T03:59:28.574Z,8.62
2022-12-04T04:02:39.652Z,8.52
2022-12-04T04:05:47.611Z,8.52
2022-12-04T04:08:56.374Z,8.45
2022-12-04T04:12:04.535Z,8.37
2022-12-04T04:15:30.040Z,8.75
2022-12-04T04:18:52.709Z,8.84
2022-12-04T04:22:14.405Z,8.74
2022-12-04T04:25:21.995Z,8.79
2022-12-04T04:28:30.991Z,8.82
2022-12-04T04:31:41.041Z,8.73
2022-12-04T04:34:52.103Z,8.78
2022-12-04T04:38:02.764Z,8.53
2022-12-04T04:41:13.231Z,8.74
2022-12-04T04:44:22.710Z,8.74
2022-12-04T04:47:32.147Z,8.77
2022-12-04T04:50:38.910Z,8.70
2022-12-04T04:53:46.984Z,8.74
2022-12-04T04:56:50.855Z,8.72
2022-12-04T04:59:54.618Z,8.78
2022-12-04T05:02:58.434Z,8.49
2022-12-04T05:06:03.533Z,8.51
2022-12-04T05:09:07.280Z,8.43
2022-12-04T05:12:11.630Z,8.62
2022-12-04T05:15:15.239Z,8.47
2022-12-04T05:18:18.935Z,8.37
2022-12-04T05:21:23.920Z,8.45
2022-12-04T05:24:27.724Z,8.50
2022-12-04T05:27:32.174Z,8.50
2022-12-04T05:30:36.331Z,8.51
2022-12-04T05:33:39.847Z,8.58
2022-12-04T05:36:44.799Z,8.68
2022-12-04T05:39:49.188Z,8.62
2022-12-04T05:42:52.743Z,8.62
2022-12-04T05:45:56.734Z,8.50
2022-12-04T05:49:00.338Z,8.26
2022-12-04T05:52:07.357Z,8.34
2022-12-04T05:55:11.097Z,8.51
2022-12-04T05:58:14.691Z,8.36
2022-12-04T06:01:21.173Z,8.43
2022-12-04T06:04:25.115Z,8.46
2022-12-04T06:07:30.270Z,8.38
2022-12-04T06:10:34.043Z,8.25
2022-12-04T06:13:38.004Z,8.31
2022-12-04T06:16:43.638Z,8.42
2022-12-04T06:19:47.598Z,8.34
2022-12-04T06:22:52.834Z,8.51
2022-12-04T06:25:58.004Z,8.59
2022-12-04T06:29:04.547Z,8.32
2022-12-04T06:32:08.304Z,8.41
2022-12-04T06:35:12.103Z,8.31
2022-12-04T06:38:21.143Z,8.58
2022-12-04T06:41:26.832Z,8.70
2022-12-04T06:44:30.614Z,8.80
2022-12-04T06:47:45.523Z,8.72
2022-12-04T06:50:49.244Z,8.75
2022-12-04T06:53:56.823Z,8.70
2022-12-04T06:57:01.226Z,8.79
2022-12-04T07:00:05.954Z,8.50
2022-12-04T07:03:09.773Z,8.78
2022-12-04T07:06:19.314Z,8.61
2022-12-04T07:09:24.741Z,8.73
2022-12-04T07:12:28.564Z,8.62
2022-12-04T07:15:34.795Z,8.50
2022-12-04T07:18:42.371Z,8.49
2022-12-04T07:21:48.901Z,8.77
2022-12-04T07:24:54.323Z,8.39
2022-12-04T07:27:58.804Z,8.63
2022-12-04T07:31:09.224Z,8.59
2022-12-04T07:34:18.136Z,8.56
2022-12-04T07:37:21.883Z,8.44
2022-12-04T07:40:27.056Z,8.60
2022-12-04T07:43:31.723Z,8.72
2022-12-04T07:46:35.556Z,8.68
2022-12-04T07:49:39.564Z,8.45
2022-12-04T07:52:43.165Z,8.80
2022-12-04T07:55:53.653Z,8.75
2022-12-04T07:58:57.313Z,8.49
2022-12-04T08:02:01.132Z,8.53
2022-12-04T08:05:05.023Z,8.68
2022-12-04T08:08:09.041Z,8.69
2022-12-04T08:11:16.526Z,8.49
2022-12-04T08:14:20.284Z,8.43
2022-12-04T08:17:24.081Z,8.45
2022-12-04T08:20:27.924Z,8.54
2022-12-04T08:23:31.690Z,8.78
2022-12-04T08:26:36.925Z,8.58
2022-12-04T08:29:40.845Z,8.89
2022-12-04T08:32:45.703Z,8.58
2022-12-04T08:35:49.394Z,8.70
2022-12-04T08:38:53.233Z,8.60
2022-12-04T08:41:58.470Z,8.69
2022-12-04T08:45:02.149Z,8.72
2022-12-04T08:48:06.376Z,8.60
2022-12-04T08:51:15.871Z,8.52
2022-12-04T08:54:19.774Z,8.30
2022-12-04T08:57:24.884Z,8.43
2022-12-04T09:00:28.727Z,8.58
2022-12-04T09:03:32.476Z,8.37
2022-12-04T09:06:36.144Z,8.69
2022-12-04T09:09:44.932Z,8.70
2022-12-04T09:12:53.169Z,8.80
2022-12-04T09:15:57.097Z,8.81
2022-12-04T09:19:00.993Z,8.71
2022-12-04T09:22:04.736Z,8.96
2022-12-04T09:25:09.244Z,8.69
2022-12-04T09:28:14.317Z,8.70
2022-12-04T09:31:18.246Z,8.42
2022-12-04T09:34:22.084Z,8.68
2022-12-04T09:37:25.723Z,8.88
2022-12-04T09:40:37.736Z,8.60
2022-12-04T09:43:49.354Z,8.63
2022-12-04T09:46:56.556Z,8.76
2022-12-04T09:50:05.423Z,8.67
2022-12-04T09:53:15.654Z,8.70
2022-12-04T09:56:21.277Z,8.76
2022-12-04T09:59:29.214Z,8.86
2022-12-04T10:02:38.879Z,8.75
2022-12-04T10:05:56.560Z,8.57
2022-12-04T10:09:04.734Z,8.82
2022-12-04T10:12:17.744Z,8.93
2022-12-04T10:15:31.227Z,8.71
2022-12-04T10:18:46.044Z,8.95
2022-12-04T10:22:05.723Z,9.03
2022-12-04T10:25:14.954Z,8.99
2022-12-04T10:28:27.367Z,9.05
2022-12-04T10:31:36.841Z,9.03
2022-12-04T10:34:45.633Z,8.95
2022-12-04T10:37:54.527Z,8.91
2022-12-04T10:41:07.743Z,8.83
2022-12-04T10:44:18.559Z,8.69
2022-12-04T10:47:26.612Z,8.69
2022-12-04T10:50:31.743Z,8.66
2022-12-04T10:53:39.144Z,8.86
2022-12-04T10:56:53.323Z,9.02
2022-12-04T11:00:00.529Z,8.61
2022-12-04T11:03:12.789Z,8.84
2022-12-04T11:06:17.404Z,8.92
2022-12-04T11:09:24.762Z,8.92
2022-12-04T11:12:29.415Z,8.83
2022-12-04T11:15:38.164Z,8.71
2022-12-04T11:18:52.495Z,8.68
2022-12-04T11:22:00.513Z,8.88
2022-12-04T11:25:05.813Z,8.85
2022-12-04T11:28:41.556Z,8.70
2022-12-04T11:31:49.477Z,8.89
2022-12-04T11:35:00.954Z,8.84
2022-12-04T11:38:15.247Z,8.81
2022-12-04T11:41:28.104Z,8.83
2022-12-04T11:44:34.334Z,8.88
2022-12-04T11:47:38.842Z,8.79
2022-12-04T11:50:51.514Z,8.70
2022-12-04T11:54:02.264Z,8.74
2022-12-04T11:57:17.765Z,8.87
2022-12-04T12:00:24.385Z,8.96
2022-12-04T12:03:37.883Z,9.06
2022-12-04T12:07:00.343Z,8.89
2022-12-04T12:10:12.823Z,9.03
2022-12-04T12:13:26.842Z,8.80
2022-12-04T12:16:48.533Z,8.92
2022-12-04T12:20:06.857Z,8.72
2022-12-04T12:23:33.163Z,8.60
2022-12-04T12:26:47.444Z,8.63
2022-12-04T12:30:01.365Z,8.78
2022-12-04T12:33:16.293Z,8.71
2022-12-04T12:36:25.791Z,8.93
2022-12-04T12:39:40.553Z,8.84
2022-12-04T12:42:56.623Z,8.89
2022-12-04T12:46:08.595Z,8.71
2022-12-04T12:49:20.424Z,8.88
2022-12-04T12:52:33.503Z,8.92
2022-12-04T12:55:46.823Z,8.64
2022-12-04T12:58:56.395Z,8.85
2022-12-04T13:02:08.582Z,8.89
2022-12-04T13:05:18.687Z,8.81
2022-12-04T13:08:28.112Z,8.54
2022-12-04T13:11:35.974Z,8.76
2022-12-04T13:14:45.949Z,8.79
2022-12-04T13:17:57.693Z,8.79
2022-12-04T13:21:07.393Z,9.02
2022-12-04T13:24:41.032Z,8.89
2022-12-04T13:28:03.105Z,8.83
2022-12-04T13:31:21.583Z,8.93
2022-12-04T13:34:50.004Z,9.01
2022-12-04T13:38:10.373Z,8.83
2022-12-04T13:41:22.233Z,8.87
2022-12-04T13:44:31.903Z,8.91
2022-12-04T13:47:39.063Z,8.95
2022-12-04T13:50:45.103Z,8.85
2022-12-04T13:53:51.395Z,8.73
2022-12-04T13:56:59.435Z,8.77
2022-12-04T14:00:27.533Z,8.56
2022-12-04T14:03:36.333Z,8.70
2022-12-04T14:06:46.824Z,8.94
2022-12-04T14:09:55.918Z,8.74
2022-12-04T14:13:04.903Z,8.75
2022-12-04T14:16:22.925Z,8.88
2022-12-04T14:19:35.986Z,9.08
2022-12-04T14:22:44.954Z,9.14
2022-12-04T14:25:48.623Z,9.11
2022-12-04T14:28:52.724Z,9.10
2022-12-04T14:32:01.814Z,8.87
2022-12-04T14:35:06.423Z,8.89
2022-12-04T14:38:19.746Z,8.70
2022-12-04T14:41:28.432Z,8.74
2022-12-04T14:44:33.543Z,8.96
2022-12-04T14:47:44.907Z,8.88
2022-12-04T14:50:59.246Z,9.16
2022-12-04T14:54:15.034Z,9.09
2022-12-04T14:57:44.553Z,9.29
2022-12-04T15:00:52.673Z,9.27
2022-12-04T15:04:00.033Z,8.92
2022-12-04T15:07:04.214Z,9.07
2022-12-04T15:10:38.471Z,8.83
2022-12-04T15:13:42.205Z,8.91
2022-12-04T15:16:45.783Z,8.64
2022-12-04T15:19:51.023Z,9.03
2022-12-04T15:22:59.095Z,8.99
2022-12-04T15:26:06.254Z,8.95
2022-12-04T15:29:11.144Z,8.97
2022-12-04T15:32:15.193Z,8.81
2022-12-04T15:35:27.163Z,8.80
2022-12-04T15:38:31.153Z,9.06
2022-12-04T15:41:37.216Z,9.04
2022-12-04T15:44:40.946Z,9.01
2022-12-04T15:47:53.853Z,9.00
2022-12-04T15:51:05.832Z,8.76
2022-12-04T15:54:16.351Z,8.93
2022-12-04T15:57:28.234Z,8.90
2022-12-04T16:00:34.485Z,8.92
2022-12-04T16:03:45.629Z,9.09
2022-12-04T16:06:53.997Z,8.91
2022-12-04T16:10:03.758Z,9.15
2022-12-04T16:13:07.874Z,8.98
2022-12-04T16:16:17.389Z,8.90
2022-12-04T16:19:31.223Z,8.89
2022-12-04T16:22:36.374Z,8.93
2022-12-04T16:25:40.074Z,8.94
2022-12-04T16:28:44.130Z,9.13
2022-12-04T16:31:47.919Z,9.06
2022-12-04T16:34:51.643Z,9.01
2022-12-04T16:37:56.853Z,8.95
2022-12-04T16:41:00.543Z,9.15
2022-12-04T16:44:04.334Z,9.23
2022-12-04T16:47:08.285Z,9.26
2022-12-04T16:50:12.194Z,9.21
2022-12-04T16:53:19.945Z,9.26
2022-12-04T16:56:24.322Z,9.14
2022-12-04T16:59:27.944Z,9.13
2022-12-04T17:02:32.154Z,9.01
2022-12-04T17:05:36.077Z,9.06
2022-12-04T17:08:41.226Z,9.04
2022-12-04T17:11:45.679Z,8.90
2022-12-04T17:14:49.403Z,8.99
2022-12-04T17:17:53.126Z,9.07
2022-12-04T17:20:57.103Z,8.93
2022-12-04T17:24:02.526Z,9.11
2022-12-04T17:27:08.033Z,9.15
2022-12-04T17:30:13.614Z,8.95
2022-12-04T17:33:17.266Z,9.02
2022-12-04T17:36:25.193Z,9.08
2022-12-04T17:39:30.394Z,8.91
2022-12-04T17:42:34.584Z,8.95
2022-12-04T17:45:42.214Z,9.02
2022-12-04T17:48:46.073Z,8.87
2022-12-04T17:51:49.746Z,8.74
2022-12-04T17:54:55.333Z,8.84
2022-12-04T17:57:59.263Z,8.89
2022-12-04T18:01:04.885Z,9.01
2022-12-04T18:04:09.363Z,8.96
2022-12-04T18:07:13.124Z,8.94
2022-12-04T18:10:18.653Z,8.74
2022-12-04T18:13:22.492Z,8.80
2022-12-04T18:16:27.351Z,8.71
2022-12-04T18:19:32.084Z,8.95
2022-12-04T18:22:35.774Z,8.91
2022-12-04T18:25:40.983Z,8.83
2022-12-04T18:28:45.095Z,9.00
2022-12-04T18:31:49.073Z,8.86
2022-12-04T18:34:52.921Z,8.99
2022-12-04T18:37:57.092Z,8.85
2022-12-04T18:41:05.914Z,8.87
2022-12-04T18:44:09.614Z,9.06
2022-12-04T18:47:13.302Z,9.05
2022-12-04T18:50:17.616Z,9.36
2022-12-04T18:53:25.273Z,9.36
2022-12-04T18:56:31.063Z,9.34
2022-12-04T18:59:36.642Z,9.25
2022-12-04T19:02:40.429Z,9.36
2022-12-04T19:05:50.038Z,9.19
2022-12-04T19:08:53.783Z,9.34
2022-12-04T19:11:59.527Z,9.35
2022-12-04T19:15:03.696Z,9.54
2022-12-04T19:18:07.544Z,9.39
2022-12-04T19:21:11.294Z,9.20
2022-12-04T19:24:15.645Z,9.06
2022-12-04T19:27:20.644Z,9.19
2022-12-04T19:30:24.356Z,8.99
2022-12-04T19:33:29.467Z,8.95
2022-12-04T19:36:34.851Z,8.82
2022-12-04T19:39:38.764Z,8.84
2022-12-04T19:42:44.043Z,8.91
2022-12-04T19:45:49.911Z,9.20
2022-12-04T19:48:57.065Z,9.19
2022-12-04T19:52:00.705Z,9.06
2022-12-04T19:55:04.593Z,9.15
2022-12-04T19:58:09.765Z,9.14
2022-12-04T20:01:16.263Z,9.36
2022-12-04T20:04:20.114Z,9.29
2022-12-04T20:07:23.773Z,8.98
2022-12-04T20:10:27.522Z,8.85
2022-12-04T20:13:35.867Z,9.07
2022-12-04T20:16:40.203Z,9.04
2022-12-04T20:19:43.957Z,9.06
2022-12-04T20:22:47.665Z,9.07
2022-12-04T20:25:51.636Z,9.22
2022-12-04T20:28:58.584Z,8.78
2022-12-04T20:32:02.307Z,8.72
2022-12-04T20:35:07.253Z,9.01
2022-12-04T20:38:10.894Z,9.28
2022-12-04T20:41:16.384Z,9.03
2022-12-04T20:44:21.606Z,9.18
2022-12-04T20:47:26.004Z,9.21
2022-12-04T20:50:29.723Z,9.35
2022-12-04T20:53:33.455Z,9.30
2022-12-04T20:56:39.404Z,9.23
2022-12-04T20:59:44.484Z,9.19
2022-12-04T21:02:48.276Z,9.20
2022-12-04T21:05:52.043Z,9.27
2022-12-04T21:08:56.938Z,9.16
2022-12-04T21:12:00.720Z,9.11
2022-12-04T21:15:24.133Z,9.14
2022-12-04T21:18:27.806Z,9.28
2022-12-04T21:21:31.655Z,9.27
2022-12-04T21:24:38.872Z,9.31
2022-12-04T21:27:42.703Z,9.25
2022-12-04T21:30:47.844Z,9.36
2022-12-04T21:33:51.683Z,9.25
2022-12-04T21:36:55.414Z,9.33
2022-12-04T21:39:59.808Z,9.45
2022-12-04T21:43:03.773Z,9.36
2022-12-04T21:46:09.893Z,9.23
2022-12-04T21:49:15.004Z,9.28
2022-12-04T21:52:19.535Z,9.48
2022-12-04T21:55:23.166Z,9.31
2022-12-04T21:58:29.384Z,9.27
2022-12-04T22:01:34.750Z,9.48
2022-12-04T22:04:38.623Z,9.48
2022-12-04T22:07:42.366Z,9.45
2022-12-04T22:10:48.681Z,9.53
2022-12-04T22:13:52.353Z,9.51
2022-12-04T22:16:57.745Z,9.54
2022-12-04T22:20:01.453Z,9.54
2022-12-04T22:23:05.844Z,9.31
2022-12-04T22:26:10.663Z,9.46
2022-12-04T22:29:48.660Z,9.58
2022-12-04T22:32:39.803Z,9.53
2022-12-04T22:35:43.563Z,9.61
2022-12-04T22:39:08.221Z,9.57
2022-12-04T22:42:11.494Z,9.38
2022-12-04T22:45:15.194Z,9.32
2022-12-04T22:48:20.295Z,9.53
2022-12-04T22:51:24.215Z,9.57
2022-12-04T22:54:27.803Z,9.50
2022-12-04T22:57:31.524Z,9.36
2022-12-04T23:00:35.275Z,9.18
2022-12-04T23:03:40.723Z,9.48
2022-12-04T23:06:44.346Z,9.39
2022-12-04T23:09:48.148Z,9.35
2022-12-04T23:12:51.942Z,9.44
2022-12-04T23:15:55.665Z,9.52
2022-12-04T23:19:01.024Z,9.48
2022-12-04T23:22:04.753Z,9.35
2022-12-04T23:25:09.493Z,9.47
2022-12-04T23:28:13.186Z,9.52
2022-12-04T23:31:17.171Z,9.43
2022-12-04T23:34:22.334Z,9.40
2022-12-04T23:37:25.905Z,9.40
2022-12-04T23:40:29.614Z,9.37
2022-12-04T23:43:33.923Z,9.48
2022-12-04T23:46:38.040Z,9.65
2022-12-04T23:49:43.264Z,9.70
2022-12-04T23:52:46.954Z,9.63
2022-12-04T23:55:57.593Z,9.65
2022-12-04T23:59:01.373Z,9.79
